createdAt,value
2023-03-06T00:01:10.029Z,2.33
2023-03-06T00:03:37.816Z,2.37
2023-03-06T00:06:05.928Z,2.17
2023-03-06T00:08:33.663Z,2.40
2023-03-06T00:11:01.439Z,2.80
2023-03-06T00:13:30.744Z,2.63
2023-03-06T00:16:01.632Z,2.67
2023-03-06T00:18:29.852Z,2.43
2023-03-06T00:20:57.616Z,2.50
2023-03-06T00:23:25.798Z,2.37
2023-03-06T00:25:53.666Z,2.77
2023-03-06T00:28:21.450Z,2.40
2023-03-06T00:30:49.184Z,2.57
2023-03-06T00:33:18.272Z,2.03
2023-03-06T00:35:46.106Z,1.90
2023-03-06T00:38:13.823Z,2.10
2023-03-06T00:40:41.562Z,2.63
2023-03-06T00:43:09.510Z,2.43
2023-03-06T00:45:37.520Z,2.67
2023-03-06T00:48:06.300Z,2.80
2023-03-06T00:50:36.246Z,2.47
2023-03-06T00:53:03.986Z,2.83
2023-03-06T00:55:33.361Z,2.60
2023-03-06T00:58:01.155Z,2.77
2023-03-06T01:00:28.964Z,2.53
2023-03-06T01:02:56.653Z,2.60
2023-03-06T01:05:24.833Z,3.27
2023-03-06T01:07:53.939Z,2.90
2023-03-06T01:10:21.876Z,2.63
2023-03-06T01:12:49.570Z,2.90
2023-03-06T01:15:17.305Z,2.67
2023-03-06T01:17:45.154Z,2.47
2023-03-06T01:20:14.584Z,2.40
2023-03-06T01:22:42.303Z,2.70
2023-03-06T01:25:12.463Z,2.43
2023-03-06T01:27:40.284Z,2.23
2023-03-06T01:30:09.376Z,2.37
2023-03-06T01:32:37.269Z,2.50
2023-03-06T01:35:06.374Z,2.10
2023-03-06T01:37:36.639Z,2.50
2023-03-06T01:40:05.358Z,2.83
2023-03-06T01:42:34.539Z,2.97
2023-03-06T01:45:04.756Z,2.43
2023-03-06T01:47:32.504Z,2.40
2023-03-06T01:50:03.860Z,2.40
2023-03-06T01:52:34.072Z,2.53
2023-03-06T01:55:05.410Z,2.37
2023-03-06T01:57:39.024Z,2.60
2023-03-06T02:00:10.919Z,2.20
2023-03-06T02:02:40.465Z,2.37
2023-03-06T02:05:09.234Z,2.23
2023-03-06T02:07:38.335Z,2.70
2023-03-06T02:10:07.171Z,2.20
2023-03-06T02:12:37.495Z,2.30
2023-03-06T02:15:06.402Z,2.30
2023-03-06T02:17:36.053Z,2.00
2023-03-06T02:20:10.730Z,2.13
2023-03-06T02:22:47.035Z,2.40
2023-03-06T02:25:26.639Z,2.70
2023-03-06T02:27:54.421Z,1.90
2023-03-06T02:30:23.606Z,2.30
2023-03-06T02:32:51.539Z,2.10
2023-03-06T02:35:20.916Z,2.53
2023-03-06T02:37:48.720Z,2.40
2023-03-06T02:40:18.478Z,2.53
2023-03-06T02:42:49.855Z,2.23
2023-03-06T02:45:23.327Z,2.37
2023-03-06T02:47:51.062Z,2.60
2023-03-06T02:50:18.846Z,2.60
2023-03-06T02:52:46.637Z,2.60
2023-03-06T02:55:14.738Z,2.40
2023-03-06T02:57:42.458Z,2.10
2023-03-06T03:00:13.032Z,2.40
2023-03-06T03:02:40.750Z,3.20
2023-03-06T03:05:09.121Z,2.67
2023-03-06T03:07:37.158Z,2.37
2023-03-06T03:10:05.502Z,2.97
2023-03-06T03:12:33.669Z,2.70
2023-03-06T03:15:01.532Z,2.70
2023-03-06T03:17:30.699Z,2.60
2023-03-06T03:19:58.752Z,2.60
2023-03-06T03:22:26.555Z,2.37
2023-03-06T03:24:54.370Z,2.60
2023-03-06T03:27:22.232Z,2.83
2023-03-06T03:29:50.003Z,2.40
2023-03-06T03:32:17.849Z,2.87
2023-03-06T03:34:47.081Z,2.53
2023-03-06T03:37:14.868Z,2.30
2023-03-06T03:39:42.679Z,2.67
2023-03-06T03:42:10.642Z,2.30
2023-03-06T03:44:38.597Z,2.30
2023-03-06T03:47:07.240Z,2.30
2023-03-06T03:49:35.019Z,2.17
2023-03-06T03:52:04.325Z,2.27
2023-03-06T03:54:32.092Z,2.07
2023-03-06T03:56:59.881Z,2.30
2023-03-06T03:59:27.710Z,2.30
2023-03-06T04:01:55.999Z,2.30
2023-03-06T04:04:24.132Z,2.00
2023-03-06T04:06:51.931Z,2.10
2023-03-06T04:09:21.064Z,2.00
2023-03-06T04:11:48.944Z,2.30
2023-03-06T04:14:16.718Z,2.30
2023-03-06T04:16:44.484Z,2.00
2023-03-06T04:19:12.294Z,2.30
2023-03-06T04:21:39.999Z,2.00
2023-03-06T04:24:08.568Z,2.00
2023-03-06T04:26:37.728Z,2.03
2023-03-06T04:29:05.522Z,2.20
2023-03-06T04:31:33.321Z,1.93
2023-03-06T04:34:01.121Z,2.03
2023-03-06T04:36:31.366Z,2.20
2023-03-06T04:38:59.706Z,2.43
2023-03-06T04:41:27.458Z,1.90
2023-03-06T04:43:56.645Z,2.13
2023-03-06T04:46:24.439Z,1.97
2023-03-06T04:48:52.162Z,2.67
2023-03-06T04:51:20.233Z,2.40
2023-03-06T04:53:48.005Z,2.30
2023-03-06T04:56:15.849Z,2.50
2023-03-06T04:58:44.674Z,2.13
2023-03-06T05:01:13.953Z,2.03
2023-03-06T05:03:41.910Z,2.10
2023-03-06T05:06:09.883Z,2.13
2023-03-06T05:08:37.684Z,2.27
2023-03-06T05:11:05.577Z,2.30
2023-03-06T05:13:33.358Z,2.47
2023-03-06T05:16:04.629Z,2.30
2023-03-06T05:18:37.267Z,2.20
2023-03-06T05:21:06.556Z,2.47
2023-03-06T05:23:36.358Z,2.43
2023-03-06T05:26:08.169Z,2.30
2023-03-06T05:28:38.072Z,2.73
2023-03-06T05:31:06.633Z,2.73
2023-03-06T05:33:36.876Z,4.63
2023-03-06T05:36:05.444Z,3.30
2023-03-06T05:38:33.833Z,3.83
2023-03-06T05:41:01.664Z,3.93
2023-03-06T05:43:29.420Z,3.83
2023-03-06T05:46:02.775Z,3.40
2023-03-06T05:48:30.935Z,3.23
2023-03-06T05:51:01.647Z,3.60
2023-03-06T05:53:30.112Z,3.50
2023-03-06T05:55:58.935Z,3.53
2023-03-06T05:58:27.467Z,3.60
2023-03-06T06:00:55.324Z,4.53
2023-03-06T06:03:23.332Z,4.20
2023-03-06T06:05:51.109Z,4.60
2023-03-06T06:08:20.653Z,4.33
2023-03-06T06:10:48.398Z,4.43
2023-03-06T06:13:16.083Z,4.10
2023-03-06T06:15:43.913Z,3.83
2023-03-06T06:18:11.633Z,4.00
2023-03-06T06:20:39.617Z,4.20
2023-03-06T06:23:07.304Z,3.50
2023-03-06T06:25:36.397Z,4.07
2023-03-06T06:28:04.604Z,3.63
2023-03-06T06:30:32.541Z,3.40
2023-03-06T06:33:01.841Z,3.53
2023-03-06T06:35:29.690Z,3.10
2023-03-06T06:37:57.459Z,3.60
2023-03-06T06:40:27.537Z,3.00
2023-03-06T06:42:56.662Z,3.33
2023-03-06T06:45:24.388Z,3.47
2023-03-06T06:47:52.200Z,3.20
2023-03-06T06:50:20.663Z,3.17
2023-03-06T06:52:48.449Z,3.33
2023-03-06T06:55:16.517Z,3.20
2023-03-06T06:57:44.597Z,3.00
2023-03-06T07:00:15.806Z,3.20
2023-03-06T07:02:43.561Z,3.10
2023-03-06T07:05:11.703Z,2.63
2023-03-06T07:07:39.652Z,2.77
2023-03-06T07:10:12.354Z,3.03
2023-03-06T07:12:40.434Z,2.87
2023-03-06T07:15:09.349Z,2.80
2023-03-06T07:17:38.465Z,2.63
2023-03-06T07:20:08.809Z,2.97
2023-03-06T07:22:49.827Z,2.70
2023-03-06T07:25:18.998Z,3.10
2023-03-06T07:27:52.682Z,2.93
2023-03-06T07:30:21.040Z,2.90
2023-03-06T07:32:53.740Z,3.00
2023-03-06T07:35:21.619Z,2.90
2023-03-06T07:37:49.466Z,2.70
2023-03-06T07:40:17.580Z,2.53
2023-03-06T07:42:45.392Z,2.57
2023-03-06T07:45:13.877Z,2.33
2023-03-06T07:47:42.053Z,2.20
2023-03-06T07:50:12.783Z,2.60
2023-03-06T07:52:40.575Z,2.40
2023-03-06T07:55:09.790Z,2.30
2023-03-06T07:57:37.595Z,2.30
2023-03-06T08:00:06.766Z,2.37
2023-03-06T08:02:34.559Z,2.30
2023-03-06T08:05:02.340Z,2.10
2023-03-06T08:07:31.592Z,2.27
2023-03-06T08:09:59.421Z,2.47
2023-03-06T08:12:27.277Z,2.30
2023-03-06T08:14:55.033Z,2.20
2023-03-06T08:17:22.928Z,2.20
2023-03-06T08:19:50.977Z,2.50
2023-03-06T08:22:18.639Z,2.30
2023-03-06T08:24:47.779Z,2.40
2023-03-06T08:27:15.513Z,2.47
2023-03-06T08:29:43.349Z,2.37
2023-03-06T08:32:13.020Z,2.50
2023-03-06T08:34:42.485Z,2.13
2023-03-06T08:37:10.348Z,1.90
2023-03-06T08:39:38.105Z,2.17
2023-03-06T08:42:07.485Z,1.90
2023-03-06T08:44:35.974Z,2.00
2023-03-06T08:47:04.674Z,1.90
2023-03-06T08:49:32.963Z,2.20
2023-03-06T08:52:00.698Z,1.97
2023-03-06T08:54:28.397Z,2.07
2023-03-06T08:56:56.118Z,1.50
2023-03-06T08:59:25.693Z,2.50
2023-03-06T09:01:53.448Z,1.83
2023-03-06T09:04:21.380Z,1.97
2023-03-06T09:06:49.088Z,1.80
2023-03-06T09:09:16.887Z,1.73
2023-03-06T09:11:44.717Z,1.77
2023-03-06T09:14:12.491Z,2.33
2023-03-06T09:16:41.676Z,1.40
2023-03-06T09:19:09.754Z,2.17
2023-03-06T09:21:37.543Z,1.80
2023-03-06T09:24:05.599Z,1.70
2023-03-06T09:26:45.042Z,1.70
2023-03-06T09:29:16.186Z,1.70
2023-03-06T09:31:45.574Z,1.57
2023-03-06T09:34:13.405Z,1.70
2023-03-06T09:36:55.569Z,1.57
2023-03-06T09:39:24.215Z,1.67
2023-03-06T09:41:52.614Z,1.70
2023-03-06T09:44:23.706Z,1.77
2023-03-06T09:47:09.840Z,1.73
2023-03-06T09:49:45.685Z,1.43
2023-03-06T09:52:28.184Z,2.00
2023-03-06T09:55:00.228Z,1.80
2023-03-06T09:57:31.700Z,1.60
2023-03-06T10:00:04.671Z,1.43
2023-03-06T10:02:39.196Z,1.70
2023-03-06T10:05:13.324Z,1.50
2023-03-06T10:07:46.854Z,1.63
2023-03-06T10:10:20.373Z,1.37
2023-03-06T10:12:54.713Z,1.40
2023-03-06T10:15:26.478Z,1.60
2023-03-06T10:17:57.488Z,1.70
2023-03-06T10:20:37.897Z,1.50
2023-03-06T10:23:26.460Z,1.40
2023-03-06T10:26:01.444Z,1.73
2023-03-06T10:28:32.440Z,1.70
2023-03-06T10:31:06.963Z,1.80
2023-03-06T10:33:45.829Z,1.77
2023-03-06T10:36:16.218Z,2.20
2023-03-06T10:38:44.685Z,1.33
2023-03-06T10:41:23.616Z,1.60
2023-03-06T10:44:24.056Z,1.83
2023-03-06T10:46:54.683Z,1.80
2023-03-06T10:49:30.404Z,1.93
2023-03-06T10:52:01.558Z,1.90
2023-03-06T10:54:34.626Z,2.17
2023-03-06T10:57:22.239Z,1.77
2023-03-06T10:59:54.886Z,1.90
2023-03-06T11:02:28.527Z,2.07
2023-03-06T11:04:59.805Z,1.60
2023-03-06T11:07:29.648Z,1.57
2023-03-06T11:10:04.361Z,1.73
2023-03-06T11:12:33.402Z,2.00
2023-03-06T11:15:18.471Z,1.83
2023-03-06T11:17:53.200Z,1.77
2023-03-06T11:20:25.090Z,1.80
2023-03-06T11:22:56.743Z,1.90
2023-03-06T11:25:29.167Z,3.17
2023-03-06T11:28:00.651Z,3.47
2023-03-06T11:30:35.809Z,3.73
2023-03-06T11:33:11.094Z,2.13
2023-03-06T11:35:50.211Z,1.77
2023-03-06T11:38:22.225Z,2.37
2023-03-06T11:40:54.920Z,2.23
2023-03-06T11:43:27.560Z,2.23
2023-03-06T11:46:01.380Z,1.90
2023-03-06T11:48:36.436Z,2.27
2023-03-06T11:51:15.320Z,2.00
2023-03-06T11:53:43.111Z,2.77
2023-03-06T11:56:23.985Z,2.50
2023-03-06T11:59:01.929Z,2.10
2023-03-06T12:01:37.156Z,2.23
2023-03-06T12:04:26.982Z,2.17
2023-03-06T12:07:03.634Z,1.93
2023-03-06T12:09:46.097Z,2.50
2023-03-06T12:12:26.433Z,2.10
2023-03-06T12:15:07.816Z,1.87
2023-03-06T12:17:58.850Z,2.00
2023-03-06T12:20:42.627Z,2.10
2023-03-06T12:23:24.513Z,2.17
2023-03-06T12:25:59.593Z,1.97
2023-03-06T12:28:54.404Z,2.10
2023-03-06T12:31:37.121Z,1.87
2023-03-06T12:34:18.163Z,2.00
2023-03-06T12:36:54.804Z,2.30
2023-03-06T12:39:40.009Z,3.20
2023-03-06T12:42:28.633Z,2.67
2023-03-06T12:45:18.489Z,2.87
2023-03-06T12:47:48.385Z,1.83
2023-03-06T12:50:23.896Z,1.90
2023-03-06T12:52:53.039Z,1.70
2023-03-06T12:55:25.730Z,1.73
2023-03-06T12:57:53.959Z,1.90
2023-03-06T13:01:04.321Z,1.70
2023-03-06T13:03:44.897Z,2.27
2023-03-06T13:06:51.542Z,1.50
2023-03-06T13:09:23.337Z,1.83
2023-03-06T13:12:15.800Z,1.63
2023-03-06T13:14:55.321Z,1.50
2023-03-06T13:17:40.937Z,1.80
2023-03-06T13:20:35.142Z,1.40
2023-03-06T13:23:36.328Z,1.77
2023-03-06T13:26:07.348Z,1.80
2023-03-06T13:28:49.283Z,2.00
2023-03-06T13:31:28.659Z,1.80
2023-03-06T13:33:59.547Z,2.03
2023-03-06T13:36:30.075Z,1.80
2023-03-06T13:38:59.806Z,2.10
2023-03-06T13:41:37.692Z,1.90
2023-03-06T13:44:47.251Z,1.70
2023-03-06T13:48:09.690Z,1.73
2023-03-06T13:50:43.322Z,1.53
2023-03-06T13:53:57.541Z,2.00
2023-03-06T13:56:44.029Z,1.90
2023-03-06T13:59:45.899Z,2.00
2023-03-06T14:02:40.749Z,1.77
2023-03-06T14:05:14.606Z,2.00
2023-03-06T14:07:44.328Z,1.63
2023-03-06T14:10:21.899Z,2.13
2023-03-06T14:13:04.688Z,1.70
2023-03-06T14:15:42.063Z,1.70
2023-03-06T14:18:17.760Z,2.30
2023-03-06T14:20:49.766Z,1.60
2023-03-06T14:23:25.330Z,2.67
2023-03-06T14:26:00.011Z,2.27
2023-03-06T14:28:29.832Z,2.17
2023-03-06T14:31:01.264Z,1.60
2023-03-06T14:33:32.948Z,1.90
2023-03-06T14:36:03.803Z,1.83
2023-03-06T14:38:36.234Z,2.07
2023-03-06T14:41:05.771Z,1.93
2023-03-06T14:43:33.739Z,1.80
2023-03-06T14:46:05.042Z,1.80
2023-03-06T14:48:42.026Z,1.50
2023-03-06T14:51:17.834Z,1.60
2023-03-06T14:53:48.529Z,1.70
2023-03-06T14:56:20.220Z,1.77
2023-03-06T14:58:58.232Z,1.50
2023-03-06T15:01:33.892Z,1.80
2023-03-06T15:04:02.910Z,1.50
2023-03-06T15:06:35.937Z,1.47
2023-03-06T15:09:08.339Z,1.70
2023-03-06T15:11:52.739Z,1.60
2023-03-06T15:14:22.460Z,1.90
2023-03-06T15:16:51.728Z,1.80
2023-03-06T15:19:21.155Z,2.33
2023-03-06T15:21:51.427Z,1.43
2023-03-06T15:24:33.249Z,1.57
2023-03-06T15:27:04.673Z,1.70
2023-03-06T15:29:32.914Z,1.37
2023-03-06T15:32:33.832Z,1.47
2023-03-06T15:35:26.476Z,1.80
2023-03-06T15:37:54.646Z,1.60
2023-03-06T15:40:24.238Z,1.80
2023-03-06T15:42:51.956Z,2.30
2023-03-06T15:45:21.797Z,2.07
2023-03-06T15:47:52.667Z,1.30
2023-03-06T15:50:22.333Z,1.40
2023-03-06T15:52:50.941Z,1.43
2023-03-06T15:55:21.566Z,2.03
2023-03-06T15:57:52.061Z,1.50
2023-03-06T16:00:27.644Z,1.20
2023-03-06T16:02:58.059Z,1.70
2023-03-06T16:05:26.504Z,1.10
2023-03-06T16:07:55.050Z,1.20
2023-03-06T16:10:24.620Z,1.50
2023-03-06T16:12:55.518Z,1.30
2023-03-06T16:15:25.323Z,1.93
2023-03-06T16:17:53.073Z,1.47
2023-03-06T16:20:23.925Z,1.10
2023-03-06T16:22:53.611Z,1.20
2023-03-06T16:25:22.500Z,1.77
2023-03-06T16:27:55.483Z,1.37
2023-03-06T16:30:24.115Z,1.80
2023-03-06T16:32:51.849Z,1.60
2023-03-06T16:35:19.937Z,2.00
2023-03-06T16:37:49.167Z,1.60
2023-03-06T16:40:23.003Z,1.50
2023-03-06T16:42:53.427Z,1.73
2023-03-06T16:45:22.666Z,2.03
2023-03-06T16:47:50.635Z,2.00
2023-03-06T16:50:25.120Z,1.80
2023-03-06T16:52:55.920Z,1.70
2023-03-06T16:55:25.879Z,1.70
2023-03-06T16:57:53.969Z,2.00
2023-03-06T17:00:24.611Z,2.50
2023-03-06T17:02:53.359Z,2.30
2023-03-06T17:05:21.228Z,2.07
2023-03-06T17:07:50.333Z,1.90
2023-03-06T17:10:26.172Z,2.40
2023-03-06T17:12:54.045Z,2.47
2023-03-06T17:15:22.208Z,2.20
2023-03-06T17:17:51.561Z,2.10
2023-03-06T17:20:20.294Z,1.90
2023-03-06T17:22:47.985Z,2.17
2023-03-06T17:25:15.941Z,1.90
2023-03-06T17:27:45.043Z,2.10
2023-03-06T17:30:13.717Z,2.90
2023-03-06T17:32:41.826Z,2.53
2023-03-06T17:35:10.529Z,4.53
2023-03-06T17:37:38.411Z,6.20
2023-03-06T17:40:09.933Z,3.63
2023-03-06T17:42:37.864Z,2.90
2023-03-06T17:45:09.309Z,2.90
2023-03-06T17:47:37.114Z,3.80
2023-03-06T17:50:05.496Z,4.30
2023-03-06T17:52:33.378Z,5.33
2023-03-06T17:55:01.210Z,5.27
2023-03-06T17:57:28.977Z,6.47
2023-03-06T17:59:56.759Z,5.40
2023-03-06T18:02:25.923Z,5.63
2023-03-06T18:04:53.664Z,4.90
2023-03-06T18:07:21.371Z,5.00
2023-03-06T18:09:49.387Z,4.57
2023-03-06T18:12:17.486Z,3.80
2023-03-06T18:14:45.351Z,3.50
2023-03-06T18:17:13.418Z,2.07
2023-03-06T18:19:42.572Z,2.30
2023-03-06T18:22:10.344Z,2.43
2023-03-06T18:24:38.155Z,4.03
2023-03-06T18:27:05.863Z,4.30
2023-03-06T18:29:33.904Z,3.87
2023-03-06T18:32:01.992Z,2.87
2023-03-06T18:34:29.887Z,3.53
2023-03-06T18:36:58.980Z,4.00
2023-03-06T18:39:26.746Z,5.40
2023-03-06T18:41:55.822Z,6.37
2023-03-06T18:44:23.782Z,4.07
2023-03-06T18:46:51.617Z,4.60
2023-03-06T18:49:19.644Z,4.23
2023-03-06T18:51:48.126Z,4.70
2023-03-06T18:54:17.497Z,4.10
2023-03-06T18:56:45.366Z,3.50
2023-03-06T18:59:18.196Z,3.30
2023-03-06T19:01:47.374Z,3.50
2023-03-06T19:04:15.522Z,3.80
2023-03-06T19:06:43.409Z,3.17
2023-03-06T19:09:11.355Z,8.20
2023-03-06T19:11:40.489Z,8.53
2023-03-06T19:14:08.839Z,6.40
2023-03-06T19:16:36.599Z,5.73
2023-03-06T19:19:04.354Z,4.70
2023-03-06T19:21:32.067Z,4.53
2023-03-06T19:24:00.014Z,4.37
2023-03-06T19:26:28.048Z,3.73
2023-03-06T19:28:57.263Z,4.53
2023-03-06T19:31:27.631Z,4.53
2023-03-06T19:33:56.712Z,5.40
2023-03-06T19:36:27.589Z,5.20
2023-03-06T19:38:55.982Z,4.67
2023-03-06T19:41:23.793Z,5.00
2023-03-06T19:43:53.721Z,5.73
2023-03-06T19:46:24.081Z,5.20
2023-03-06T19:48:57.106Z,5.53
2023-03-06T19:51:25.086Z,6.30
2023-03-06T19:53:53.379Z,5.13
2023-03-06T19:56:23.142Z,5.50
2023-03-06T19:58:50.857Z,5.63
2023-03-06T20:01:20.965Z,5.60
2023-03-06T20:03:50.604Z,5.47
2023-03-06T20:06:20.914Z,5.67
2023-03-06T20:08:49.008Z,6.30
2023-03-06T20:11:18.161Z,5.57
2023-03-06T20:13:47.725Z,5.67
2023-03-06T20:16:15.745Z,5.40
2023-03-06T20:18:43.588Z,5.23
2023-03-06T20:21:12.742Z,5.33
2023-03-06T20:23:40.535Z,5.43
2023-03-06T20:26:10.742Z,4.77
2023-03-06T20:28:39.291Z,5.47
2023-03-06T20:31:08.613Z,5.50
2023-03-06T20:33:36.721Z,5.17
2023-03-06T20:36:04.892Z,6.37
2023-03-06T20:38:34.068Z,6.03
2023-03-06T20:41:01.854Z,6.23
2023-03-06T20:43:29.674Z,6.13
2023-03-06T20:45:59.377Z,6.07
2023-03-06T20:48:27.149Z,5.73
2023-03-06T20:51:05.993Z,5.80
2023-03-06T20:53:36.339Z,8.20
2023-03-06T20:56:05.010Z,6.00
2023-03-06T20:58:32.896Z,5.87
2023-03-06T21:01:02.398Z,5.00
2023-03-06T21:03:32.604Z,4.93
2023-03-06T21:06:00.384Z,5.23
2023-03-06T21:08:28.186Z,5.80
2023-03-06T21:10:57.344Z,5.87
2023-03-06T21:13:25.032Z,5.20
2023-03-06T21:15:53.004Z,5.10
2023-03-06T21:18:20.721Z,5.30
2023-03-06T21:20:48.633Z,5.47
2023-03-06T21:23:16.409Z,6.67
2023-03-06T21:25:48.778Z,5.70
2023-03-06T21:28:18.888Z,5.63
2023-03-06T21:30:46.933Z,5.80
2023-03-06T21:33:16.036Z,4.83
2023-03-06T21:35:45.729Z,5.73
2023-03-06T21:38:14.585Z,5.87
2023-03-06T21:40:42.938Z,5.33
2023-03-06T21:43:10.989Z,5.63
2023-03-06T21:45:44.653Z,5.80
2023-03-06T21:48:12.701Z,6.10
2023-03-06T21:50:40.485Z,7.30
2023-03-06T21:53:09.712Z,6.90
2023-03-06T21:55:40.377Z,5.93
2023-03-06T21:58:08.418Z,7.07
2023-03-06T22:00:36.752Z,5.63
2023-03-06T22:03:06.649Z,5.97
2023-03-06T22:05:34.464Z,6.63
2023-03-06T22:08:02.273Z,6.27
2023-03-06T22:10:30.100Z,5.90
2023-03-06T22:12:57.930Z,6.10
2023-03-06T22:15:25.605Z,6.47
2023-03-06T22:17:53.760Z,5.43
2023-03-06T22:20:23.147Z,6.53
2023-03-06T22:22:50.859Z,5.77
2023-03-06T22:25:18.687Z,5.73
2023-03-06T22:27:46.672Z,5.53
2023-03-06T22:30:14.742Z,5.43
2023-03-06T22:32:42.666Z,5.50
2023-03-06T22:35:10.837Z,5.70
2023-03-06T22:37:39.926Z,5.20
2023-03-06T22:40:08.661Z,5.43
2023-03-06T22:42:36.494Z,4.87
2023-03-06T22:45:04.384Z,5.57
2023-03-06T22:47:32.161Z,5.27
2023-03-06T22:49:59.912Z,4.90
2023-03-06T22:52:27.654Z,5.00
2023-03-06T22:54:56.835Z,5.30
2023-03-06T22:57:24.703Z,4.63
2023-03-06T22:59:52.438Z,4.90
2023-03-06T23:02:20.275Z,5.40
2023-03-06T23:04:52.163Z,4.63
2023-03-06T23:07:20.236Z,4.53
2023-03-06T23:09:48.391Z,4.93
2023-03-06T23:12:17.537Z,5.03
2023-03-06T23:14:49.619Z,4.93
2023-03-06T23:17:17.566Z,4.50
2023-03-06T23:19:45.669Z,6.03
2023-03-06T23:22:14.398Z,5.07
2023-03-06T23:24:42.166Z,4.93
2023-03-06T23:27:09.864Z,5.50
2023-03-06T23:29:38.981Z,4.90
2023-03-06T23:32:07.350Z,5.50
2023-03-06T23:34:36.464Z,6.10
2023-03-06T23:37:04.589Z,5.10
2023-03-06T23:39:33.635Z,5.70
2023-03-06T23:42:01.408Z,5.90
2023-03-06T23:44:29.345Z,5.37
2023-03-06T23:46:58.451Z,5.70
2023-03-06T23:49:26.219Z,6.40
2023-03-06T23:51:54.228Z,6.63
2023-03-06T23:54:21.992Z,5.60
2023-03-06T23:56:49.724Z,5.00
2023-03-06T23:59:17.548Z,5.67
